Frio Chikuma — 3FWG8 — position and weather

sailwx.info

Track history (hours):
 
Tides and Currents Weather Stations Pressure Air Temp Water Temp Dewpoint Dewpoint Depression Visibility Wind Speed Wind Dir Waves Ship Positions

Frio Chikuma

Last reported at 2016-Aug-03 00:34 UTC. Time now 2016-Aug-28 10:28 UTC.
Position N 05°16' W 004°02'.
Warning: this ship's position is 25 days out of date.

Length 135 m; draft 7.4 m.

Type: Cargo ship. MMSI: 353306000.

Date/timePositionNaut miles runAvg speedWind from/ knotsBaromVisibWave heightAir tempDewpointWater temp
2016-Aug-03 00:34N 05°16' W 004°02'2 0.4
2016-Aug-02 19:28N 05°18' W 004°01'0 0.0
2016-Aug-02 18:10N 05°18' W 004°01'0 0.0
2016-Aug-02 15:28N 05°18' W 004°01'0 0.0
2016-Aug-02 13:29N 05°18' W 004°01'0 0.0
2016-Aug-02 11:23N 05°18' W 004°01'0 0.0
2016-Aug-02 10:32N 05°18' W 004°01'0 0.0
2016-Aug-02 09:31N 05°18' W 004°01'0 0.0
2016-Aug-02 08:33N 05°18' W 004°01'0 0.0
2016-Aug-02 07:33N 05°18' W 004°01'0 0.0
2016-Aug-02 06:33N 05°18' W 004°01'0 0.0
2016-Aug-02 04:33N 05°18' W 004°01'0 0.0
2016-Aug-02 03:32N 05°18' W 004°01'0 0.0
2016-Aug-02 02:33N 05°18' W 004°01'0 0.0
2016-Aug-02 01:31N 05°18' W 004°01'0 0.0
2016-Aug-02 00:33N 05°18' W 004°01'0 0.0
2016-Aug-01 23:28N 05°18' W 004°01'0 0.0
2016-Aug-01 22:29N 05°18' W 004°01'0 0.0
2016-Aug-01 21:33N 05°18' W 004°01'0 0.0
2016-Aug-01 20:33N 05°18' W 004°01'0 0.0
2016-Aug-01 19:31N 05°18' W 004°01'0 0.0
2016-Aug-01 18:32N 05°18' W 004°01'0 0.0
2016-Aug-01 17:33N 05°18' W 004°01'0 0.0
2016-Aug-01 16:31N 05°18' W 004°01'0 0.0
2016-Aug-01 15:33N 05°18' W 004°01'0 0.0
2016-Aug-01 14:27N 05°18' W 004°01'0 0.0
2016-Aug-01 13:33N 05°18' W 004°01'0 0.0
2016-Aug-01 12:33N 05°18' W 004°01'0 0.0
2016-Aug-01 11:33N 05°18' W 004°01'0 0.0
2016-Aug-01 10:30N 05°18' W 004°01'0 0.0
2016-Aug-01 09:33N 05°18' W 004°01'0 0.0
2016-Aug-01 08:33N 05°18' W 004°01'0 0.0
2016-Aug-01 07:29N 05°18' W 004°01'0 0.0
2016-Aug-01 04:32N 05°18' W 004°01'0 0.0
2016-Aug-01 03:33N 05°18' W 004°01'0 0.0
2016-Aug-01 02:33N 05°18' W 004°01'0 0.0
2016-Aug-01 01:33N 05°18' W 004°01'0 0.0
2016-Aug-01 00:33N 05°18' W 004°01'0 0.0
2016-Jul-31 23:33N 05°18' W 004°01'0 0.0
2016-Jul-31 22:32N 05°18' W 004°01'0 0.0
2016-Jul-31 21:33N 05°18' W 004°01'0 0.0
2016-Jul-31 20:33N 05°18' W 004°01'0 0.0
2016-Jul-31 19:33N 05°18' W 004°01'0 0.0
2016-Jul-31 18:32N 05°18' W 004°01'0 0.0
2016-Jul-31 17:31N 05°18' W 004°01'0 0.2
2016-Jul-31 16:33N 05°18' W 004°01'5 4.6
2016-Jul-31 15:29N 05°14' W 003°59'3 2.8
2016-Jul-31 14:29N 05°13' W 004°02'0 0.1
2016-Jul-31 11:20N 05°14' W 004°02'0 0.0
2016-Jul-31 10:26N 05°14' W 004°02'0 0.1
2016-Jul-31 08:08N 05°13' W 004°02'0 0.0
2016-Jul-31 04:14N 05°14' W 004°02'0 0.0
2016-Jul-31 01:14N 05°13' W 004°02'0 0.0
2016-Jul-30 21:08N 05°14' W 004°02'0 0.1
2016-Jul-30 20:20N 05°13' W 004°02'0 0.0
2016-Jul-30 17:20N 05°13' W 004°02'0 0.1
2016-Jul-30 14:26N 05°13' W 004°02'0 0.0
2016-Jul-30 11:20N 05°13' W 004°02'0 0.0
2016-Jul-30 10:26N 05°13' W 004°02'0 0.0
2016-Jul-30 06:30N 05°13' W 004°02'  
2016-Jul-24 11:13N 21°58' W 018°19'  
Track history (hours):
 
Tides and Currents Weather Stations Pressure Air Temp Water Temp Dewpoint Dewpoint Depression Visibility Wind Speed Wind Dir Waves Ship Positions

Frio Chikuma

Last reported at 2016-Aug-03 00:34 UTC. Time now 2016-Aug-28 10:28 UTC.
Position N 05°16' W 004°02'.
Warning: this ship's position is 25 days out of date.

Length 135 m; draft 7.4 m.

Type: Cargo ship. MMSI: 353306000.

Date/timePositionNaut miles runAvg speedWind from/ knotsBaromVisibWave heightAir tempDewpointWater temp
2016-Aug-03 00:34N 05°16' W 004°02'2 0.4
2016-Aug-02 19:28N 05°18' W 004°01'0 0.0
2016-Aug-02 18:10N 05°18' W 004°01'0 0.0
2016-Aug-02 15:28N 05°18' W 004°01'0 0.0
2016-Aug-02 13:29N 05°18' W 004°01'0 0.0
2016-Aug-02 11:23N 05°18' W 004°01'0 0.0
2016-Aug-02 10:32N 05°18' W 004°01'0 0.0
2016-Aug-02 09:31N 05°18' W 004°01'0 0.0
2016-Aug-02 08:33N 05°18' W 004°01'0 0.0
2016-Aug-02 07:33N 05°18' W 004°01'0 0.0
2016-Aug-02 06:33N 05°18' W 004°01'0 0.0
2016-Aug-02 04:33N 05°18' W 004°01'0 0.0
2016-Aug-02 03:32N 05°18' W 004°01'0 0.0
2016-Aug-02 02:33N 05°18' W 004°01'0 0.0
2016-Aug-02 01:31N 05°18' W 004°01'0 0.0
2016-Aug-02 00:33N 05°18' W 004°01'0 0.0
2016-Aug-01 23:28N 05°18' W 004°01'0 0.0
2016-Aug-01 22:29N 05°18' W 004°01'0 0.0
2016-Aug-01 21:33N 05°18' W 004°01'0 0.0
2016-Aug-01 20:33N 05°18' W 004°01'0 0.0
2016-Aug-01 19:31N 05°18' W 004°01'0 0.0
2016-Aug-01 18:32N 05°18' W 004°01'0 0.0
2016-Aug-01 17:33N 05°18' W 004°01'0 0.0
2016-Aug-01 16:31N 05°18' W 004°01'0 0.0
2016-Aug-01 15:33N 05°18' W 004°01'0 0.0
2016-Aug-01 14:27N 05°18' W 004°01'0 0.0
2016-Aug-01 13:33N 05°18' W 004°01'0 0.0
2016-Aug-01 12:33N 05°18' W 004°01'0 0.0
2016-Aug-01 11:33N 05°18' W 004°01'0 0.0
2016-Aug-01 10:30N 05°18' W 004°01'0 0.0
2016-Aug-01 09:33N 05°18' W 004°01'0 0.0
2016-Aug-01 08:33N 05°18' W 004°01'0 0.0
2016-Aug-01 07:29N 05°18' W 004°01'0 0.0
2016-Aug-01 04:32N 05°18' W 004°01'0 0.0
2016-Aug-01 03:33N 05°18' W 004°01'0 0.0
2016-Aug-01 02:33N 05°18' W 004°01'0 0.0
2016-Aug-01 01:33N 05°18' W 004°01'0 0.0
2016-Aug-01 00:33N 05°18' W 004°01'0 0.0
2016-Jul-31 23:33N 05°18' W 004°01'0 0.0
2016-Jul-31 22:32N 05°18' W 004°01'0 0.0
2016-Jul-31 21:33N 05°18' W 004°01'0 0.0
2016-Jul-31 20:33N 05°18' W 004°01'0 0.0
2016-Jul-31 19:33N 05°18' W 004°01'0 0.0
2016-Jul-31 18:32N 05°18' W 004°01'0 0.0
2016-Jul-31 17:31N 05°18' W 004°01'0 0.2
2016-Jul-31 16:33N 05°18' W 004°01'5 4.6
2016-Jul-31 15:29N 05°14' W 003°59'3 2.8
2016-Jul-31 14:29N 05°13' W 004°02'0 0.1
2016-Jul-31 11:20N 05°14' W 004°02'0 0.0
2016-Jul-31 10:26N 05°14' W 004°02'0 0.1
2016-Jul-31 08:08N 05°13' W 004°02'0 0.0
2016-Jul-31 04:14N 05°14' W 004°02'0 0.0
2016-Jul-31 01:14N 05°13' W 004°02'0 0.0
2016-Jul-30 21:08N 05°14' W 004°02'0 0.1
2016-Jul-30 20:20N 05°13' W 004°02'0 0.0
2016-Jul-30 17:20N 05°13' W 004°02'0 0.1
2016-Jul-30 14:26N 05°13' W 004°02'0 0.0
2016-Jul-30 11:20N 05°13' W 004°02'0 0.0
2016-Jul-30 10:26N 05°13' W 004°02'0 0.0
2016-Jul-30 06:30N 05°13' W 004°02'  
2016-Jul-24 11:13N 21°58' W 018°19'  

Dump ship's entire track history